sensor_id;sensor_type;location;lat;lon;timestamp;P1;durP1;ratioP1;P2;durP2;ratioP2
21297;SDS011;10808;48.010;11.326;2023-04-20T00:00:19;10.98;;;6.95;;
21297;SDS011;10808;48.010;11.326;2023-04-20T00:02:46;8.88;;;6.88;;
21297;SDS011;10808;48.010;11.326;2023-04-20T00:05:15;10.65;;;7.90;;
21297;SDS011;10808;48.010;11.326;2023-04-20T00:07:44;9.55;;;7.88;;
21297;SDS011;10808;48.010;11.326;2023-04-20T00:10:10;10.05;;;8.48;;
21297;SDS011;10808;48.010;11.326;2023-04-20T00:12:36;11.15;;;8.75;;
21297;SDS011;10808;48.010;11.326;2023-04-20T00:15:09;11.23;;;8.95;;
21297;SDS011;10808;48.010;11.326;2023-04-20T00:17:38;11.73;;;8.30;;
21297;SDS011;10808;48.010;11.326;2023-04-20T00:20:05;11.68;;;9.25;;
21297;SDS011;10808;48.010;11.326;2023-04-20T00:22:34;13.73;;;9.77;;
21297;SDS011;10808;48.010;11.326;2023-04-20T00:25:00;11.32;;;9.02;;
21297;SDS011;10808;48.010;11.326;2023-04-20T00:27:27;12.13;;;9.68;;
21297;SDS011;10808;48.010;11.326;2023-04-20T00:29:53;13.15;;;10.20;;
21297;SDS011;10808;48.010;11.326;2023-04-20T00:32:19;12.32;;;9.68;;
21297;SDS011;10808;48.010;11.326;2023-04-20T00:34:49;13.25;;;9.75;;
21297;SDS011;10808;48.010;11.326;2023-04-20T00:37:15;12.50;;;9.77;;
21297;SDS011;10808;48.010;11.326;2023-04-20T00:39:41;12.20;;;9.63;;
21297;SDS011;10808;48.010;11.326;2023-04-20T00:42:07;12.50;;;10.13;;
21297;SDS011;10808;48.010;11.326;2023-04-20T00:44:33;11.70;;;9.20;;
21297;SDS011;10808;48.010;11.326;2023-04-20T00:47:00;11.80;;;9.52;;
21297;SDS011;10808;48.010;11.326;2023-04-20T00:49:27;11.38;;;8.65;;
21297;SDS011;10808;48.010;11.326;2023-04-20T00:51:55;11.27;;;9.00;;
21297;SDS011;10808;48.010;11.326;2023-04-20T00:54:23;11.45;;;9.23;;
21297;SDS011;10808;48.010;11.326;2023-04-20T00:56:53;14.23;;;9.63;;
21297;SDS011;10808;48.010;11.326;2023-04-20T00:59:20;11.77;;;9.00;;
21297;SDS011;10808;48.010;11.326;2023-04-20T01:01:47;11.43;;;9.00;;
21297;SDS011;10808;48.010;11.326;2023-04-20T01:04:13;11.38;;;8.43;;
21297;SDS011;10808;48.010;11.326;2023-04-20T01:06:40;11.85;;;8.85;;
21297;SDS011;10808;48.010;11.326;2023-04-20T01:09:14;11.35;;;8.05;;
21297;SDS011;10808;48.010;11.326;2023-04-20T01:11:40;11.38;;;8.18;;
21297;SDS011;10808;48.010;11.326;2023-04-20T01:14:06;12.67;;;8.70;;
21297;SDS011;10808;48.010;11.326;2023-04-20T01:16:34;11.20;;;8.65;;
21297;SDS011;10808;48.010;11.326;2023-04-20T01:19:02;10.40;;;8.10;;
21297;SDS011;10808;48.010;11.326;2023-04-20T01:21:28;10.88;;;8.35;;
21297;SDS011;10808;48.010;11.326;2023-04-20T01:23:55;9.30;;;7.70;;
21297;SDS011;10808;48.010;11.326;2023-04-20T01:26:22;12.93;;;7.28;;
21297;SDS011;10808;48.010;11.326;2023-04-20T01:28:49;9.02;;;6.57;;
21297;SDS011;10808;48.010;11.326;2023-04-20T01:31:15;8.75;;;6.80;;
21297;SDS011;10808;48.010;11.326;2023-04-20T01:33:41;8.75;;;6.65;;
21297;SDS011;10808;48.010;11.326;2023-04-20T01:36:08;7.80;;;6.55;;
21297;SDS011;10808;48.010;11.326;2023-04-20T01:38:35;9.52;;;6.93;;
21297;SDS011;10808;48.010;11.326;2023-04-20T01:41:02;8.60;;;6.93;;
21297;SDS011;10808;48.010;11.326;2023-04-20T01:43:31;8.65;;;7.22;;
21297;SDS011;10808;48.010;11.326;2023-04-20T01:45:58;9.23;;;7.55;;
21297;SDS011;10808;48.010;11.326;2023-04-20T01:48:24;9.32;;;7.50;;
21297;SDS011;10808;48.010;11.326;2023-04-20T01:50:50;10.80;;;8.13;;
21297;SDS011;10808;48.010;11.326;2023-04-20T01:53:17;10.43;;;8.13;;
21297;SDS011;10808;48.010;11.326;2023-04-20T01:55:43;11.63;;;8.38;;
21297;SDS011;10808;48.010;11.326;2023-04-20T01:58:09;10.85;;;8.18;;
21297;SDS011;10808;48.010;11.326;2023-04-20T02:00:35;11.43;;;8.40;;
21297;SDS011;10808;48.010;11.326;2023-04-20T02:03:01;9.85;;;7.90;;
21297;SDS011;10808;48.010;11.326;2023-04-20T02:05:27;10.63;;;7.80;;
21297;SDS011;10808;48.010;11.326;2023-04-20T02:07:53;12.13;;;8.10;;
21297;SDS011;10808;48.010;11.326;2023-04-20T02:10:19;10.55;;;8.27;;
21297;SDS011;10808;48.010;11.326;2023-04-20T02:12:46;10.50;;;8.10;;
21297;SDS011;10808;48.010;11.326;2023-04-20T02:15:14;10.50;;;8.30;;
21297;SDS011;10808;48.010;11.326;2023-04-20T02:17:40;11.02;;;8.07;;
21297;SDS011;10808;48.010;11.326;2023-04-20T02:20:06;10.50;;;8.33;;
21297;SDS011;10808;48.010;11.326;2023-04-20T02:22:37;11.77;;;8.93;;
21297;SDS011;10808;48.010;11.326;2023-04-20T02:25:03;11.27;;;8.30;;
21297;SDS011;10808;48.010;11.326;2023-04-20T02:27:30;12.27;;;8.98;;
21297;SDS011;10808;48.010;11.326;2023-04-20T02:29:57;11.45;;;8.70;;
21297;SDS011;10808;48.010;11.326;2023-04-20T02:32:24;10.33;;;8.30;;
21297;SDS011;10808;48.010;11.326;2023-04-20T02:34:51;10.60;;;8.00;;
21297;SDS011;10808;48.010;11.326;2023-04-20T02:37:17;11.30;;;8.07;;
21297;SDS011;10808;48.010;11.326;2023-04-20T02:39:43;10.77;;;8.05;;
21297;SDS011;10808;48.010;11.326;2023-04-20T02:42:09;10.18;;;8.00;;
21297;SDS011;10808;48.010;11.326;2023-04-20T02:44:35;9.95;;;7.80;;
21297;SDS011;10808;48.010;11.326;2023-04-20T02:47:01;9.32;;;7.05;;
21297;SDS011;10808;48.010;11.326;2023-04-20T02:49:27;9.15;;;7.40;;
21297;SDS011;10808;48.010;11.326;2023-04-20T02:51:53;8.52;;;7.20;;
21297;SDS011;10808;48.010;11.326;2023-04-20T02:54:19;9.50;;;7.28;;
21297;SDS011;10808;48.010;11.326;2023-04-20T02:56:45;9.18;;;7.13;;
21297;SDS011;10808;48.010;11.326;2023-04-20T02:59:11;8.93;;;6.87;;
21297;SDS011;10808;48.010;11.326;2023-04-20T03:01:37;8.77;;;6.78;;
21297;SDS011;10808;48.010;11.326;2023-04-20T03:04:03;9.30;;;7.13;;
21297;SDS011;10808;48.010;11.326;2023-04-20T03:06:30;10.20;;;7.40;;
21297;SDS011;10808;48.010;11.326;2023-04-20T03:08:56;9.73;;;7.10;;
21297;SDS011;10808;48.010;11.326;2023-04-20T03:11:24;9.95;;;7.00;;
21297;SDS011;10808;48.010;11.326;2023-04-20T03:13:50;8.52;;;6.28;;
21297;SDS011;10808;48.010;11.326;2023-04-20T03:16:16;7.57;;;5.97;;
21297;SDS011;10808;48.010;11.326;2023-04-20T03:18:42;9.95;;;6.75;;
21297;SDS011;10808;48.010;11.326;2023-04-20T03:21:08;8.57;;;6.55;;
21297;SDS011;10808;48.010;11.326;2023-04-20T03:23:34;7.93;;;6.20;;
21297;SDS011;10808;48.010;11.326;2023-04-20T03:26:00;9.27;;;6.43;;
21297;SDS011;10808;48.010;11.326;2023-04-20T03:28:26;8.10;;;6.20;;
21297;SDS011;10808;48.010;11.326;2023-04-20T03:30:52;7.05;;;6.00;;
21297;SDS011;10808;48.010;11.326;2023-04-20T03:33:18;8.63;;;6.60;;
21297;SDS011;10808;48.010;11.326;2023-04-20T03:35:44;7.68;;;6.20;;
21297;SDS011;10808;48.010;11.326;2023-04-20T03:38:11;7.38;;;5.88;;
21297;SDS011;10808;48.010;11.326;2023-04-20T03:40:37;6.87;;;5.77;;
21297;SDS011;10808;48.010;11.326;2023-04-20T03:43:03;7.05;;;5.65;;
21297;SDS011;10808;48.010;11.326;2023-04-20T03:45:29;7.05;;;5.70;;
21297;SDS011;10808;48.010;11.326;2023-04-20T03:47:55;7.88;;;5.95;;
21297;SDS011;10808;48.010;11.326;2023-04-20T03:50:21;7.35;;;6.00;;
21297;SDS011;10808;48.010;11.326;2023-04-20T03:52:47;8.05;;;6.00;;
21297;SDS011;10808;48.010;11.326;2023-04-20T03:55:14;8.07;;;6.22;;
21297;SDS011;10808;48.010;11.326;2023-04-20T03:57:40;8.63;;;6.30;;
21297;SDS011;10808;48.010;11.326;2023-04-20T04:00:07;8.18;;;6.50;;
21297;SDS011;10808;48.010;11.326;2023-04-20T04:02:35;7.88;;;5.95;;
21297;SDS011;10808;48.010;11.326;2023-04-20T04:05:01;8.88;;;6.53;;
21297;SDS011;10808;48.010;11.326;2023-04-20T04:07:27;8.10;;;6.50;;
21297;SDS011;10808;48.010;11.326;2023-04-20T04:09:53;7.53;;;6.10;;
21297;SDS011;10808;48.010;11.326;2023-04-20T04:12:19;9.35;;;6.38;;
21297;SDS011;10808;48.010;11.326;2023-04-20T04:14:45;8.35;;;6.68;;
21297;SDS011;10808;48.010;11.326;2023-04-20T04:17:14;8.25;;;6.30;;
21297;SDS011;10808;48.010;11.326;2023-04-20T04:19:40;8.45;;;6.30;;
21297;SDS011;10808;48.010;11.326;2023-04-20T04:22:08;7.68;;;6.05;;
21297;SDS011;10808;48.010;11.326;2023-04-20T04:24:34;10.73;;;7.10;;
21297;SDS011;10808;48.010;11.326;2023-04-20T04:27:02;9.15;;;6.30;;
21297;SDS011;10808;48.010;11.326;2023-04-20T04:29:29;9.15;;;6.78;;
21297;SDS011;10808;48.010;11.326;2023-04-20T04:31:56;7.85;;;6.47;;
21297;SDS011;10808;48.010;11.326;2023-04-20T04:34:24;9.32;;;6.80;;
21297;SDS011;10808;48.010;11.326;2023-04-20T04:36:54;8.68;;;6.78;;
21297;SDS011;10808;48.010;11.326;2023-04-20T04:39:20;10.45;;;7.05;;
21297;SDS011;10808;48.010;11.326;2023-04-20T04:41:47;10.95;;;7.13;;
21297;SDS011;10808;48.010;11.326;2023-04-20T04:44:13;8.30;;;6.87;;
21297;SDS011;10808;48.010;11.326;2023-04-20T04:46:42;8.33;;;7.07;;
21297;SDS011;10808;48.010;11.326;2023-04-20T04:49:10;8.70;;;6.78;;
21297;SDS011;10808;48.010;11.326;2023-04-20T04:51:49;9.48;;;7.25;;
21297;SDS011;10808;48.010;11.326;2023-04-20T04:54:15;9.10;;;7.18;;
21297;SDS011;10808;48.010;11.326;2023-04-20T04:56:41;9.52;;;7.20;;
21297;SDS011;10808;48.010;11.326;2023-04-20T04:59:07;9.13;;;7.27;;
21297;SDS011;10808;48.010;11.326;2023-04-20T05:01:33;9.60;;;7.35;;
21297;SDS011;10808;48.010;11.326;2023-04-20T05:03:59;7.97;;;6.63;;
21297;SDS011;10808;48.010;11.326;2023-04-20T05:06:25;8.30;;;6.50;;
21297;SDS011;10808;48.010;11.326;2023-04-20T05:08:52;8.85;;;6.88;;
21297;SDS011;10808;48.010;11.326;2023-04-20T05:11:18;9.18;;;6.95;;
21297;SDS011;10808;48.010;11.326;2023-04-20T05:13:44;8.82;;;7.15;;
21297;SDS011;10808;48.010;11.326;2023-04-20T05:16:10;8.77;;;6.80;;
21297;SDS011;10808;48.010;11.326;2023-04-20T05:18:36;7.85;;;6.60;;
21297;SDS011;10808;48.010;11.326;2023-04-20T05:21:02;8.32;;;6.50;;
21297;SDS011;10808;48.010;11.326;2023-04-20T05:23:29;8.10;;;6.38;;
21297;SDS011;10808;48.010;11.326;2023-04-20T05:25:55;8.93;;;7.00;;
21297;SDS011;10808;48.010;11.326;2023-04-20T05:28:22;10.00;;;7.20;;
21297;SDS011;10808;48.010;11.326;2023-04-20T05:30:48;8.03;;;6.73;;
21297;SDS011;10808;48.010;11.326;2023-04-20T05:33:15;8.10;;;6.65;;
21297;SDS011;10808;48.010;11.326;2023-04-20T05:35:44;8.25;;;6.25;;
21297;SDS011;10808;48.010;11.326;2023-04-20T05:38:11;8.27;;;6.55;;
21297;SDS011;10808;48.010;11.326;2023-04-20T05:40:37;8.10;;;6.60;;
21297;SDS011;10808;48.010;11.326;2023-04-20T05:43:06;7.13;;;6.25;;
21297;SDS011;10808;48.010;11.326;2023-04-20T05:45:32;7.93;;;6.47;;
21297;SDS011;10808;48.010;11.326;2023-04-20T05:47:58;8.55;;;6.60;;
21297;SDS011;10808;48.010;11.326;2023-04-20T05:50:25;8.90;;;6.30;;
21297;SDS011;10808;48.010;11.326;2023-04-20T05:52:51;8.05;;;6.32;;
21297;SDS011;10808;48.010;11.326;2023-04-20T05:55:18;9.15;;;6.53;;
21297;SDS011;10808;48.010;11.326;2023-04-20T05:57:45;7.63;;;5.63;;
21297;SDS011;10808;48.010;11.326;2023-04-20T06:00:11;8.00;;;5.72;;
21297;SDS011;10808;48.010;11.326;2023-04-20T06:02:39;6.53;;;5.13;;
21297;SDS011;10808;48.010;11.326;2023-04-20T06:05:05;6.53;;;5.20;;
21297;SDS011;10808;48.010;11.326;2023-04-20T06:07:33;8.57;;;4.80;;
21297;SDS011;10808;48.010;11.326;2023-04-20T06:10:00;6.40;;;5.10;;
21297;SDS011;10808;48.010;11.326;2023-04-20T06:12:26;7.30;;;5.10;;
21297;SDS011;10808;48.010;11.326;2023-04-20T06:14:56;6.47;;;5.53;;
21297;SDS011;10808;48.010;11.326;2023-04-20T06:17:22;7.10;;;5.87;;
21297;SDS011;10808;48.010;11.326;2023-04-20T06:19:48;7.60;;;5.85;;
21297;SDS011;10808;48.010;11.326;2023-04-20T06:22:14;8.50;;;6.20;;
21297;SDS011;10808;48.010;11.326;2023-04-20T06:24:41;8.45;;;6.10;;
21297;SDS011;10808;48.010;11.326;2023-04-20T06:27:08;8.38;;;6.80;;
21297;SDS011;10808;48.010;11.326;2023-04-20T06:29:34;9.85;;;6.13;;
21297;SDS011;10808;48.010;11.326;2023-04-20T06:32:00;7.63;;;6.40;;
21297;SDS011;10808;48.010;11.326;2023-04-20T06:34:26;8.17;;;6.33;;
21297;SDS011;10808;48.010;11.326;2023-04-20T06:36:52;7.25;;;6.20;;
21297;SDS011;10808;48.010;11.326;2023-04-20T06:39:18;8.30;;;6.60;;
21297;SDS011;10808;48.010;11.326;2023-04-20T06:41:44;8.07;;;6.50;;
21297;SDS011;10808;48.010;11.326;2023-04-20T06:44:10;7.93;;;6.63;;
21297;SDS011;10808;48.010;11.326;2023-04-20T06:46:36;7.80;;;6.20;;
21297;SDS011;10808;48.010;11.326;2023-04-20T06:49:02;7.70;;;6.45;;
21297;SDS011;10808;48.010;11.326;2023-04-20T06:51:30;8.32;;;6.55;;
21297;SDS011;10808;48.010;11.326;2023-04-20T06:53:56;8.25;;;6.03;;
21297;SDS011;10808;48.010;11.326;2023-04-20T06:56:22;7.25;;;5.82;;
21297;SDS011;10808;48.010;11.326;2023-04-20T06:58:48;7.43;;;5.97;;
21297;SDS011;10808;48.010;11.326;2023-04-20T07:01:14;7.97;;;5.57;;
21297;SDS011;10808;48.010;11.326;2023-04-20T07:03:41;6.70;;;5.50;;
21297;SDS011;10808;48.010;11.326;2023-04-20T07:06:07;6.95;;;5.70;;
21297;SDS011;10808;48.010;11.326;2023-04-20T07:08:35;7.35;;;5.30;;
21297;SDS011;10808;48.010;11.326;2023-04-20T07:11:03;7.90;;;6.40;;
21297;SDS011;10808;48.010;11.326;2023-04-20T07:13:29;8.77;;;6.90;;
21297;SDS011;10808;48.010;11.326;2023-04-20T07:15:56;7.78;;;6.32;;
21297;SDS011;10808;48.010;11.326;2023-04-20T07:18:22;7.85;;;5.80;;
21297;SDS011;10808;48.010;11.326;2023-04-20T07:20:48;6.18;;;5.15;;
21297;SDS011;10808;48.010;11.326;2023-04-20T07:23:14;5.80;;;4.78;;
21297;SDS011;10808;48.010;11.326;2023-04-20T07:25:40;5.30;;;4.45;;
21297;SDS011;10808;48.010;11.326;2023-04-20T07:28:06;5.00;;;4.30;;
21297;SDS011;10808;48.010;11.326;2023-04-20T07:30:32;4.55;;;3.90;;
21297;SDS011;10808;48.010;11.326;2023-04-20T07:32:58;5.55;;;4.43;;
21297;SDS011;10808;48.010;11.326;2023-04-20T07:35:24;4.57;;;3.85;;
21297;SDS011;10808;48.010;11.326;2023-04-20T07:37:50;6.47;;;4.60;;
21297;SDS011;10808;48.010;11.326;2023-04-20T07:40:17;5.18;;;4.35;;
21297;SDS011;10808;48.010;11.326;2023-04-20T07:42:43;5.75;;;4.60;;
21297;SDS011;10808;48.010;11.326;2023-04-20T07:45:09;6.80;;;4.80;;
21297;SDS011;10808;48.010;11.326;2023-04-20T07:47:37;5.78;;;5.07;;
21297;SDS011;10808;48.010;11.326;2023-04-20T07:50:03;5.80;;;5.00;;
21297;SDS011;10808;48.010;11.326;2023-04-20T07:52:31;6.20;;;5.28;;
21297;SDS011;10808;48.010;11.326;2023-04-20T07:54:57;6.50;;;5.38;;
21297;SDS011;10808;48.010;11.326;2023-04-20T07:57:24;5.57;;;4.97;;
21297;SDS011;10808;48.010;11.326;2023-04-20T07:59:51;6.50;;;5.07;;
21297;SDS011;10808;48.010;11.326;2023-04-20T08:02:17;7.00;;;5.45;;
21297;SDS011;10808;48.010;11.326;2023-04-20T08:04:43;8.20;;;6.20;;
21297;SDS011;10808;48.010;11.326;2023-04-20T08:07:09;6.43;;;5.50;;
21297;SDS011;10808;48.010;11.326;2023-04-20T08:09:36;6.43;;;4.80;;
21297;SDS011;10808;48.010;11.326;2023-04-20T08:12:02;5.47;;;4.35;;
21297;SDS011;10808;48.010;11.326;2023-04-20T08:14:38;5.10;;;4.60;;
21297;SDS011;10808;48.010;11.326;2023-04-20T08:17:06;4.70;;;4.10;;
21297;SDS011;10808;48.010;11.326;2023-04-20T08:19:32;5.40;;;4.30;;
21297;SDS011;10808;48.010;11.326;2023-04-20T08:21:58;5.07;;;4.53;;
21297;SDS011;10808;48.010;11.326;2023-04-20T08:24:24;6.03;;;4.55;;
21297;SDS011;10808;48.010;11.326;2023-04-20T08:27:01;5.20;;;4.70;;
21297;SDS011;10808;48.010;11.326;2023-04-20T08:29:27;5.93;;;4.78;;
21297;SDS011;10808;48.010;11.326;2023-04-20T08:31:53;5.15;;;4.60;;
21297;SDS011;10808;48.010;11.326;2023-04-20T08:34:19;5.88;;;5.07;;
21297;SDS011;10808;48.010;11.326;2023-04-20T08:36:45;5.88;;;4.85;;
21297;SDS011;10808;48.010;11.326;2023-04-20T08:39:12;5.72;;;5.05;;
21297;SDS011;10808;48.010;11.326;2023-04-20T08:41:42;5.65;;;5.00;;
21297;SDS011;10808;48.010;11.326;2023-04-20T08:44:08;6.35;;;5.57;;
21297;SDS011;10808;48.010;11.326;2023-04-20T08:46:34;6.28;;;5.45;;
21297;SDS011;10808;48.010;11.326;2023-04-20T08:49:02;5.63;;;5.05;;
21297;SDS011;10808;48.010;11.326;2023-04-20T08:51:28;6.03;;;5.25;;
21297;SDS011;10808;48.010;11.326;2023-04-20T08:54:03;6.07;;;5.30;;
21297;SDS011;10808;48.010;11.326;2023-04-20T08:56:32;6.72;;;5.93;;
21297;SDS011;10808;48.010;11.326;2023-04-20T08:58:59;6.68;;;5.90;;
21297;SDS011;10808;48.010;11.326;2023-04-20T09:01:29;6.45;;;5.82;;
21297;SDS011;10808;48.010;11.326;2023-04-20T09:03:58;6.60;;;5.90;;
21297;SDS011;10808;48.010;11.326;2023-04-20T09:06:28;6.75;;;6.03;;
21297;SDS011;10808;48.010;11.326;2023-04-20T09:08:59;7.70;;;6.68;;
21297;SDS011;10808;48.010;11.326;2023-04-20T09:11:34;7.70;;;6.40;;
21297;SDS011;10808;48.010;11.326;2023-04-20T09:14:09;8.35;;;7.20;;
21297;SDS011;10808;48.010;11.326;2023-04-20T10:20:46;8.25;;;7.35;;
21297;SDS011;10808;48.010;11.326;2023-04-20T11:15:19;6.47;;;5.83;;
21297;SDS011;10808;48.010;11.326;2023-04-20T11:18:04;6.15;;;5.55;;
21297;SDS011;10808;48.010;11.326;2023-04-20T11:20:36;6.05;;;5.40;;
21297;SDS011;10808;48.010;11.326;2023-04-20T11:23:03;5.95;;;5.18;;
21297;SDS011;10808;48.010;11.326;2023-04-20T11:25:30;5.35;;;4.85;;
21297;SDS011;10808;48.010;11.326;2023-04-20T11:28:06;6.05;;;5.00;;
21297;SDS011;10808;48.010;11.326;2023-04-20T11:30:39;7.15;;;6.32;;
21297;SDS011;10808;48.010;11.326;2023-04-20T11:33:05;8.23;;;7.20;;
21297;SDS011;10808;48.010;11.326;2023-04-20T11:35:45;8.10;;;7.20;;
21297;SDS011;10808;48.010;11.326;2023-04-20T11:38:11;8.52;;;7.63;;
21297;SDS011;10808;48.010;11.326;2023-04-20T11:40:37;8.40;;;7.30;;
21297;SDS011;10808;48.010;11.326;2023-04-20T11:43:03;7.85;;;7.00;;
21297;SDS011;10808;48.010;11.326;2023-04-20T11:45:32;8.15;;;7.20;;
21297;SDS011;10808;48.010;11.326;2023-04-20T11:47:59;7.80;;;7.00;;
21297;SDS011;10808;48.010;11.326;2023-04-20T11:50:25;8.90;;;7.25;;
21297;SDS011;10808;48.010;11.326;2023-04-20T11:52:51;7.30;;;6.60;;
21297;SDS011;10808;48.010;11.326;2023-04-20T11:55:17;6.95;;;5.82;;
21297;SDS011;10808;48.010;11.326;2023-04-20T11:57:43;6.93;;;6.22;;
21297;SDS011;10808;48.010;11.326;2023-04-20T12:02:42;7.35;;;5.80;;
21297;SDS011;10808;48.010;11.326;2023-04-20T12:05:08;6.05;;;5.45;;
21297;SDS011;10808;48.010;11.326;2023-04-20T12:07:35;5.78;;;5.25;;
21297;SDS011;10808;48.010;11.326;2023-04-20T12:10:01;5.97;;;5.40;;
21297;SDS011;10808;48.010;11.326;2023-04-20T12:12:29;6.07;;;5.30;;
21297;SDS011;10808;48.010;11.326;2023-04-20T12:14:56;6.10;;;5.50;;
21297;SDS011;10808;48.010;11.326;2023-04-20T12:17:29;6.37;;;5.13;;
21297;SDS011;10808;48.010;11.326;2023-04-20T12:19:56;5.67;;;5.10;;
21297;SDS011;10808;48.010;11.326;2023-04-20T12:22:30;6.07;;;5.47;;
21297;SDS011;10808;48.010;11.326;2023-04-20T12:24:58;6.05;;;5.45;;
21297;SDS011;10808;48.010;11.326;2023-04-20T12:27:25;6.00;;;5.40;;
21297;SDS011;10808;48.010;11.326;2023-04-20T12:29:51;6.47;;;5.75;;
21297;SDS011;10808;48.010;11.326;2023-04-20T12:32:17;5.90;;;5.30;;
21297;SDS011;10808;48.010;11.326;2023-04-20T12:34:43;6.05;;;5.45;;
21297;SDS011;10808;48.010;11.326;2023-04-20T12:37:09;5.93;;;5.32;;
21297;SDS011;10808;48.010;11.326;2023-04-20T12:39:35;5.85;;;5.25;;
21297;SDS011;10808;48.010;11.326;2023-04-20T12:42:01;5.30;;;4.80;;
21297;SDS011;10808;48.010;11.326;2023-04-20T12:44:28;5.93;;;5.32;;
21297;SDS011;10808;48.010;11.326;2023-04-20T12:46:56;7.05;;;5.65;;
21297;SDS011;10808;48.010;11.326;2023-04-20T12:49:22;6.00;;;5.40;;
21297;SDS011;10808;48.010;11.326;2023-04-20T12:51:48;6.57;;;5.50;;
21297;SDS011;10808;48.010;11.326;2023-04-20T12:54:14;7.95;;;5.75;;
21297;SDS011;10808;48.010;11.326;2023-04-20T12:56:40;6.10;;;5.50;;
21297;SDS011;10808;48.010;11.326;2023-04-20T12:59:07;6.47;;;5.70;;
21297;SDS011;10808;48.010;11.326;2023-04-20T13:01:37;6.30;;;5.70;;
21297;SDS011;10808;48.010;11.326;2023-04-20T13:04:05;6.03;;;5.53;;
21297;SDS011;10808;48.010;11.326;2023-04-20T13:06:31;7.07;;;5.97;;
21297;SDS011;10808;48.010;11.326;2023-04-20T13:08:57;6.87;;;6.00;;
21297;SDS011;10808;48.010;11.326;2023-04-20T13:11:24;6.72;;;6.03;;
21297;SDS011;10808;48.010;11.326;2023-04-20T13:13:50;6.10;;;5.50;;
21297;SDS011;10808;48.010;11.326;2023-04-20T13:16:16;6.80;;;6.10;;
21297;SDS011;10808;48.010;11.326;2023-04-20T13:18:43;6.63;;;5.95;;
21297;SDS011;10808;48.010;11.326;2023-04-20T13:21:09;6.20;;;5.60;;
21297;SDS011;10808;48.010;11.326;2023-04-20T13:23:35;6.45;;;5.75;;
21297;SDS011;10808;48.010;11.326;2023-04-20T13:26:02;6.95;;;5.85;;
21297;SDS011;10808;48.010;11.326;2023-04-20T13:28:28;5.93;;;5.33;;
21297;SDS011;10808;48.010;11.326;2023-04-20T13:30:54;6.00;;;5.40;;
21297;SDS011;10808;48.010;11.326;2023-04-20T13:33:21;6.35;;;5.70;;
21297;SDS011;10808;48.010;11.326;2023-04-20T13:35:47;6.30;;;5.70;;
21297;SDS011;10808;48.010;11.326;2023-04-20T13:38:13;5.83;;;5.20;;
21297;SDS011;10808;48.010;11.326;2023-04-20T13:40:40;5.90;;;5.30;;
21297;SDS011;10808;48.010;11.326;2023-04-20T13:43:08;6.07;;;5.47;;
21297;SDS011;10808;48.010;11.326;2023-04-20T13:45:34;6.07;;;5.47;;
21297;SDS011;10808;48.010;11.326;2023-04-20T13:48:01;5.68;;;5.18;;
21297;SDS011;10808;48.010;11.326;2023-04-20T13:50:27;5.85;;;5.25;;
21297;SDS011;10808;48.010;11.326;2023-04-20T13:52:53;5.93;;;5.33;;
21297;SDS011;10808;48.010;11.326;2023-04-20T13:55:19;6.13;;;5.53;;
21297;SDS011;10808;48.010;11.326;2023-04-20T13:57:45;5.82;;;5.10;;
21297;SDS011;10808;48.010;11.326;2023-04-20T14:00:12;7.47;;;5.68;;
21297;SDS011;10808;48.010;11.326;2023-04-20T14:02:38;6.43;;;5.73;;
21297;SDS011;10808;48.010;11.326;2023-04-20T14:05:06;7.35;;;5.68;;
21297;SDS011;10808;48.010;11.326;2023-04-20T14:07:33;6.70;;;6.00;;
21297;SDS011;10808;48.010;11.326;2023-04-20T14:10:00;6.68;;;5.80;;
21297;SDS011;10808;48.010;11.326;2023-04-20T14:12:26;7.30;;;6.13;;
21297;SDS011;10808;48.010;11.326;2023-04-20T14:14:52;7.90;;;6.50;;
21297;SDS011;10808;48.010;11.326;2023-04-20T14:17:21;6.85;;;6.00;;
21297;SDS011;10808;48.010;11.326;2023-04-20T14:19:47;7.43;;;6.10;;
21297;SDS011;10808;48.010;11.326;2023-04-20T14:22:14;7.17;;;6.33;;
21297;SDS011;10808;48.010;11.326;2023-04-20T14:24:41;7.43;;;6.47;;
21297;SDS011;10808;48.010;11.326;2023-04-20T14:27:09;7.88;;;6.88;;
21297;SDS011;10808;48.010;11.326;2023-04-20T14:29:37;19.25;;;14.48;;
21297;SDS011;10808;48.010;11.326;2023-04-20T14:32:03;21.95;;;15.70;;
21297;SDS011;10808;48.010;11.326;2023-04-20T14:34:29;8.45;;;6.85;;
21297;SDS011;10808;48.010;11.326;2023-04-20T14:36:55;7.75;;;6.95;;
21297;SDS011;10808;48.010;11.326;2023-04-20T14:39:21;9.90;;;8.43;;
21297;SDS011;10808;48.010;11.326;2023-04-20T14:41:50;8.57;;;7.07;;
21297;SDS011;10808;48.010;11.326;2023-04-20T14:44:17;8.88;;;7.97;;
21297;SDS011;10808;48.010;11.326;2023-04-20T14:46:44;8.35;;;7.00;;
21297;SDS011;10808;48.010;11.326;2023-04-20T14:49:19;8.93;;;8.00;;
21297;SDS011;10808;48.010;11.326;2023-04-20T14:51:54;11.25;;;10.10;;
21297;SDS011;10808;48.010;11.326;2023-04-20T14:54:21;7.65;;;6.85;;
21297;SDS011;10808;48.010;11.326;2023-04-20T14:56:48;8.50;;;7.13;;
21297;SDS011;10808;48.010;11.326;2023-04-20T14:59:14;10.05;;;7.78;;
21297;SDS011;10808;48.010;11.326;2023-04-20T15:01:43;7.93;;;6.90;;
21297;SDS011;10808;48.010;11.326;2023-04-20T15:04:09;9.80;;;7.93;;
21297;SDS011;10808;48.010;11.326;2023-04-20T15:06:35;9.43;;;8.15;;
21297;SDS011;10808;48.010;11.326;2023-04-20T15:09:04;10.00;;;8.80;;
21297;SDS011;10808;48.010;11.326;2023-04-20T15:11:30;10.70;;;9.43;;
21297;SDS011;10808;48.010;11.326;2023-04-20T15:13:59;10.93;;;9.67;;
21297;SDS011;10808;48.010;11.326;2023-04-20T15:16:26;10.52;;;9.20;;
21297;SDS011;10808;48.010;11.326;2023-04-20T15:18:52;11.73;;;10.05;;
21297;SDS011;10808;48.010;11.326;2023-04-20T15:21:20;15.43;;;12.57;;
21297;SDS011;10808;48.010;11.326;2023-04-20T15:23:47;14.25;;;11.50;;
21297;SDS011;10808;48.010;11.326;2023-04-20T15:26:13;13.80;;;10.27;;
21297;SDS011;10808;48.010;11.326;2023-04-20T15:28:42;17.80;;;15.40;;
21297;SDS011;10808;48.010;11.326;2023-04-20T15:31:09;18.33;;;14.90;;
21297;SDS011;10808;48.010;11.326;2023-04-20T15:33:35;14.40;;;11.30;;
21297;SDS011;10808;48.010;11.326;2023-04-20T15:36:01;15.23;;;12.52;;
21297;SDS011;10808;48.010;11.326;2023-04-20T15:38:27;24.55;;;18.45;;
21297;SDS011;10808;48.010;11.326;2023-04-20T15:40:53;47.50;;;32.58;;
21297;SDS011;10808;48.010;11.326;2023-04-20T15:43:19;16.80;;;13.07;;
21297;SDS011;10808;48.010;11.326;2023-04-20T15:45:45;14.20;;;11.52;;
21297;SDS011;10808;48.010;11.326;2023-04-20T15:48:12;12.45;;;10.70;;
21297;SDS011;10808;48.010;11.326;2023-04-20T15:50:39;14.20;;;11.00;;
21297;SDS011;10808;48.010;11.326;2023-04-20T15:53:05;62.50;;;46.43;;
21297;SDS011;10808;48.010;11.326;2023-04-20T15:55:31;24.55;;;18.35;;
21297;SDS011;10808;48.010;11.326;2023-04-20T15:58:00;25.75;;;21.63;;
21297;SDS011;10808;48.010;11.326;2023-04-20T16:00:26;18.80;;;16.38;;
21297;SDS011;10808;48.010;11.326;2023-04-20T16:02:52;15.57;;;12.30;;
21297;SDS011;10808;48.010;11.326;2023-04-20T16:05:18;17.00;;;13.18;;
21297;SDS011;10808;48.010;11.326;2023-04-20T16:07:45;13.75;;;11.68;;
21297;SDS011;10808;48.010;11.326;2023-04-20T16:10:11;14.75;;;11.98;;
21297;SDS011;10808;48.010;11.326;2023-04-20T16:12:37;15.13;;;11.65;;
21297;SDS011;10808;48.010;11.326;2023-04-20T16:15:03;15.52;;;12.93;;
21297;SDS011;10808;48.010;11.326;2023-04-20T16:17:29;15.27;;;12.93;;
21297;SDS011;10808;48.010;11.326;2023-04-20T16:19:55;14.65;;;11.45;;
21297;SDS011;10808;48.010;11.326;2023-04-20T16:22:22;15.35;;;11.63;;
21297;SDS011;10808;48.010;11.326;2023-04-20T16:24:48;13.90;;;11.30;;
21297;SDS011;10808;48.010;11.326;2023-04-20T16:27:14;13.40;;;11.60;;